createdAt,value
2022-12-31T00:00:14.734Z,1.20
2022-12-31T00:05:35.248Z,1.10
2022-12-31T00:08:07.268Z,1.10
2022-12-31T00:10:41.753Z,1.07
2022-12-31T00:13:14.593Z,1.10
2022-12-31T00:15:46.625Z,1.17
2022-12-31T00:18:18.623Z,1.13
2022-12-31T00:20:50.695Z,1.30
2022-12-31T00:23:22.672Z,1.20
2022-12-31T00:25:54.651Z,1.30
2022-12-31T00:28:26.631Z,1.57
2022-12-31T00:31:10.355Z,1.57
2022-12-31T00:33:42.854Z,1.33
2022-12-31T00:36:23.199Z,1.50
2022-12-31T00:38:57.688Z,1.30
2022-12-31T00:41:29.968Z,1.60
2022-12-31T00:44:02.391Z,1.20
2022-12-31T00:49:07.134Z,0.80
2022-12-31T00:51:39.212Z,0.80
2022-12-31T00:54:11.121Z,0.90
2022-12-31T00:56:43.137Z,1.20
2022-12-31T00:59:15.084Z,1.00
2022-12-31T01:01:47.228Z,1.00
2022-12-31T01:04:21.400Z,1.00
2022-12-31T01:06:53.457Z,0.80
2022-12-31T01:09:25.487Z,0.77
2022-12-31T01:11:57.481Z,0.70
2022-12-31T01:14:29.454Z,0.63
2022-12-31T01:17:01.451Z,0.70
2022-12-31T01:19:33.406Z,0.60
2022-12-31T01:22:05.366Z,0.60
2022-12-31T01:24:37.453Z,0.50
2022-12-31T01:27:09.425Z,0.80
2022-12-31T01:29:41.559Z,0.57
2022-12-31T01:32:13.537Z,0.60
2022-12-31T01:34:45.529Z,0.60
2022-12-31T01:37:17.447Z,0.50
2022-12-31T01:39:49.882Z,0.70
2022-12-31T01:42:21.951Z,0.67
2022-12-31T01:44:56.293Z,0.60
2022-12-31T01:47:39.738Z,0.60
2022-12-31T01:50:33.828Z,0.60
2022-12-31T01:53:07.619Z,0.40
2022-12-31T01:55:59.453Z,0.70
2022-12-31T01:58:42.968Z,0.70
2022-12-31T02:01:25.660Z,0.53
2022-12-31T02:03:58.929Z,0.60
2022-12-31T02:06:43.388Z,0.50
2022-12-31T02:09:16.288Z,0.40
2022-12-31T02:11:48.328Z,0.50
2022-12-31T02:14:44.641Z,0.33
2022-12-31T02:17:45.508Z,0.57
2022-12-31T02:20:32.488Z,0.50
2022-12-31T02:23:20.937Z,0.37
2022-12-31T02:26:01.272Z,0.50
2022-12-31T02:29:04.219Z,0.40
2022-12-31T02:32:12.573Z,0.40
2022-12-31T02:34:56.760Z,0.30
2022-12-31T02:37:33.332Z,0.50
2022-12-31T02:40:11.624Z,0.40
2022-12-31T02:42:43.538Z,0.60
2022-12-31T02:45:23.632Z,0.70
2022-12-31T02:48:21.442Z,0.73
2022-12-31T02:51:38.590Z,0.77
2022-12-31T02:54:33.828Z,1.00
2022-12-31T02:57:30.880Z,1.10
2022-12-31T03:00:27.961Z,1.20
2022-12-31T03:03:03.606Z,1.20
2022-12-31T03:05:41.910Z,1.00
2022-12-31T03:08:25.818Z,1.23
2022-12-31T03:10:57.835Z,1.23
2022-12-31T03:13:29.830Z,1.50
2022-12-31T03:16:01.775Z,1.30
2022-12-31T03:18:56.265Z,1.40
2022-12-31T03:21:46.683Z,1.20
2022-12-31T03:24:37.487Z,1.20
2022-12-31T03:27:09.496Z,1.00
2022-12-31T03:29:41.513Z,0.70
2022-12-31T03:32:13.469Z,0.80
2022-12-31T03:34:45.432Z,0.60
2022-12-31T03:37:17.407Z,0.70
2022-12-31T03:39:49.373Z,0.60
2022-12-31T03:42:21.371Z,0.67
2022-12-31T03:44:53.326Z,0.60
2022-12-31T03:47:25.251Z,0.43
2022-12-31T03:49:57.255Z,0.40
2022-12-31T03:52:29.281Z,0.40
2022-12-31T03:55:04.436Z,0.53
2022-12-31T03:57:38.230Z,0.50
2022-12-31T04:00:15.274Z,0.50
2022-12-31T04:02:50.987Z,0.50
2022-12-31T04:05:24.158Z,0.70
2022-12-31T04:07:56.581Z,0.67
2022-12-31T04:10:28.697Z,0.70
2022-12-31T04:13:02.534Z,0.70
2022-12-31T04:15:34.500Z,0.70
2022-12-31T04:18:06.547Z,1.10
2022-12-31T04:20:38.651Z,1.00
2022-12-31T04:23:10.599Z,0.90
2022-12-31T04:25:42.614Z,0.90
2022-12-31T04:28:14.637Z,0.87
2022-12-31T04:30:46.607Z,1.43
2022-12-31T04:33:18.582Z,0.80
2022-12-31T04:35:50.668Z,0.90
2022-12-31T04:38:22.662Z,1.00
2022-12-31T04:41:13.156Z,0.80
2022-12-31T04:43:46.371Z,0.90
2022-12-31T04:46:23.275Z,0.80
2022-12-31T04:48:55.727Z,1.30
2022-12-31T04:51:29.589Z,0.80
2022-12-31T04:54:01.863Z,1.07
2022-12-31T04:56:36.693Z,0.90
2022-12-31T04:59:10.423Z,1.10
2022-12-31T05:01:42.465Z,0.80
2022-12-31T05:04:14.525Z,0.90
2022-12-31T05:06:46.539Z,1.00
2022-12-31T05:09:18.653Z,0.60
2022-12-31T05:11:50.743Z,1.10
2022-12-31T05:14:22.993Z,0.90
2022-12-31T05:16:55.019Z,1.20
2022-12-31T05:19:27.150Z,0.83
2022-12-31T05:22:17.932Z,1.00
2022-12-31T05:24:52.185Z,0.73
2022-12-31T05:27:25.210Z,0.73
2022-12-31T05:29:57.246Z,0.87
2022-12-31T05:32:29.323Z,0.60
2022-12-31T05:35:01.786Z,1.03
2022-12-31T05:37:34.285Z,0.70
2022-12-31T05:40:07.327Z,0.60
2022-12-31T05:42:39.959Z,0.60
2022-12-31T05:45:15.493Z,0.60
2022-12-31T05:47:47.542Z,0.57
2022-12-31T05:50:19.597Z,0.80
2022-12-31T05:52:51.832Z,0.60
2022-12-31T05:55:23.950Z,0.63
2022-12-31T05:57:56.173Z,0.80
2022-12-31T06:00:28.214Z,0.80
2022-12-31T06:03:00.197Z,0.80
2022-12-31T06:05:32.239Z,0.80
2022-12-31T06:08:04.506Z,0.80
2022-12-31T06:10:36.536Z,0.70
2022-12-31T06:13:09.239Z,0.70
2022-12-31T06:15:41.255Z,0.90
2022-12-31T06:18:13.257Z,0.70
2022-12-31T06:20:45.240Z,0.70
2022-12-31T06:23:17.168Z,0.70
2022-12-31T06:25:49.145Z,0.80
2022-12-31T06:28:21.194Z,0.60
2022-12-31T06:31:03.551Z,0.80
2022-12-31T06:33:35.761Z,0.60
2022-12-31T06:36:12.652Z,0.83
2022-12-31T06:38:45.014Z,0.70
2022-12-31T06:41:18.747Z,0.70
2022-12-31T06:43:50.957Z,0.70
2022-12-31T06:46:23.273Z,0.80
2022-12-31T06:48:55.410Z,0.83
2022-12-31T06:51:27.324Z,0.80
2022-12-31T06:53:59.279Z,0.70
2022-12-31T06:56:34.877Z,0.83
2022-12-31T06:59:37.348Z,0.70
2022-12-31T07:02:48.896Z,1.00
2022-12-31T07:05:52.483Z,0.90
2022-12-31T07:08:42.531Z,0.93
2022-12-31T07:11:22.176Z,0.80
2022-12-31T07:14:01.109Z,1.00
2022-12-31T07:16:58.199Z,1.10
2022-12-31T07:19:58.609Z,1.30
2022-12-31T07:22:31.291Z,1.10
2022-12-31T07:25:04.621Z,1.30
2022-12-31T07:28:18.793Z,1.00
2022-12-31T07:31:34.693Z,1.20
2022-12-31T07:35:03.667Z,1.00
2022-12-31T07:38:10.685Z,1.00
2022-12-31T07:41:16.676Z,0.97
2022-12-31T07:44:22.460Z,1.27
2022-12-31T07:47:03.473Z,0.97
2022-12-31T07:49:42.098Z,1.00
2022-12-31T07:52:14.536Z,1.17
2022-12-31T07:54:46.846Z,1.10
2022-12-31T07:57:21.339Z,1.00
2022-12-31T08:00:09.623Z,1.40
2022-12-31T08:03:15.040Z,1.10
2022-12-31T08:06:31.963Z,1.23
2022-12-31T08:09:18.868Z,1.10
2022-12-31T08:12:00.617Z,1.10
2022-12-31T08:14:44.386Z,1.10
2022-12-31T08:17:19.848Z,0.80
2022-12-31T08:19:52.820Z,0.90
2022-12-31T08:23:06.185Z,1.00
2022-12-31T08:26:07.172Z,1.20
2022-12-31T08:28:56.852Z,1.00
2022-12-31T08:31:55.747Z,1.00
2022-12-31T08:34:39.002Z,0.80
2022-12-31T08:37:17.116Z,0.80
2022-12-31T08:40:06.800Z,1.00
2022-12-31T08:42:56.395Z,0.90
2022-12-31T08:45:36.394Z,1.43
2022-12-31T08:48:31.008Z,1.00
2022-12-31T08:51:03.521Z,1.03
2022-12-31T08:53:35.983Z,1.00
2022-12-31T08:56:24.284Z,0.90
2022-12-31T08:59:32.336Z,1.10
2022-12-31T09:02:44.616Z,1.10
2022-12-31T09:05:53.038Z,1.20
2022-12-31T09:09:09.009Z,1.40
2022-12-31T09:12:08.805Z,1.30
2022-12-31T09:14:50.063Z,1.67
2022-12-31T09:17:46.691Z,1.70
2022-12-31T09:20:42.694Z,1.20
2022-12-31T09:23:16.406Z,1.13
2022-12-31T09:26:44.278Z,1.83
2022-12-31T09:29:30.731Z,1.77
2022-12-31T09:33:01.546Z,1.97
2022-12-31T09:35:39.778Z,1.60
2022-12-31T09:38:29.424Z,1.40
2022-12-31T09:41:58.958Z,1.60
2022-12-31T09:44:54.945Z,1.90
2022-12-31T09:47:51.369Z,1.57
2022-12-31T09:51:29.674Z,1.50
2022-12-31T09:54:30.909Z,1.50
2022-12-31T09:57:29.569Z,1.30
2022-12-31T10:00:20.426Z,1.80
2022-12-31T10:03:40.893Z,1.60
2022-12-31T10:06:56.134Z,1.43
2022-12-31T10:09:55.282Z,1.57
2022-12-31T10:12:51.559Z,1.30
2022-12-31T10:15:52.875Z,1.50
2022-12-31T10:18:54.454Z,1.53
2022-12-31T10:21:38.408Z,1.70
2022-12-31T10:24:59.355Z,1.50
2022-12-31T10:28:21.797Z,4.40
2022-12-31T10:31:16.613Z,1.87
2022-12-31T10:34:23.181Z,1.60
2022-12-31T10:37:08.258Z,1.60
2022-12-31T10:40:25.132Z,1.50
2022-12-31T10:43:41.457Z,1.60
2022-12-31T10:46:45.884Z,1.60
2022-12-31T10:50:17.194Z,1.57
2022-12-31T10:53:31.366Z,1.60
2022-12-31T10:56:23.974Z,1.57
2022-12-31T10:59:57.591Z,1.40
2022-12-31T11:02:41.364Z,1.47
2022-12-31T11:05:43.967Z,1.50
2022-12-31T11:08:49.903Z,2.90
2022-12-31T11:11:49.641Z,1.93
2022-12-31T11:15:18.161Z,1.60
2022-12-31T11:18:15.498Z,1.90
2022-12-31T11:21:11.831Z,1.73
2022-12-31T11:23:55.914Z,1.63
2022-12-31T11:27:11.533Z,1.87
2022-12-31T11:30:22.411Z,1.87
2022-12-31T11:33:35.584Z,2.17
2022-12-31T11:36:36.128Z,1.90
2022-12-31T11:39:35.606Z,1.90
2022-12-31T11:42:40.453Z,1.80
2022-12-31T11:45:12.284Z,1.77
2022-12-31T11:48:30.120Z,1.80
2022-12-31T11:51:27.218Z,1.70
2022-12-31T11:54:25.203Z,1.50
2022-12-31T11:57:26.108Z,1.53
2022-12-31T12:00:03.703Z,1.63
2022-12-31T12:02:47.699Z,2.13
2022-12-31T12:05:25.431Z,2.00
2022-12-31T12:07:57.780Z,8.60
2022-12-31T12:10:36.483Z,4.20
2022-12-31T12:13:17.839Z,2.83
2022-12-31T12:15:58.300Z,2.23
2022-12-31T12:19:00.963Z,1.90
2022-12-31T12:21:33.867Z,2.00
2022-12-31T12:24:29.808Z,2.10
2022-12-31T12:27:01.737Z,1.50
2022-12-31T12:29:35.763Z,1.80
2022-12-31T12:32:27.597Z,1.73
2022-12-31T12:35:00.162Z,1.50
2022-12-31T12:37:35.442Z,1.60
2022-12-31T12:40:20.293Z,1.70
2022-12-31T12:42:54.233Z,1.70
2022-12-31T12:45:50.831Z,1.70
2022-12-31T12:48:55.772Z,1.90
2022-12-31T12:52:06.941Z,2.10
2022-12-31T12:55:15.759Z,1.80
2022-12-31T12:58:22.189Z,2.03
2022-12-31T13:01:24.078Z,1.90
2022-12-31T13:04:34.028Z,1.90
2022-12-31T13:07:40.853Z,1.73
2022-12-31T13:10:52.605Z,1.93
2022-12-31T13:13:45.260Z,1.90
2022-12-31T13:16:46.160Z,2.00
2022-12-31T13:19:36.059Z,1.97
2022-12-31T13:22:30.523Z,1.60
2022-12-31T13:25:33.405Z,2.00
2022-12-31T13:28:13.373Z,2.03
2022-12-31T13:30:51.479Z,1.97
2022-12-31T13:33:33.735Z,1.80
2022-12-31T13:36:16.441Z,2.00
2022-12-31T13:38:53.251Z,1.90
2022-12-31T13:41:32.903Z,2.20
2022-12-31T13:44:47.861Z,1.80
2022-12-31T13:47:35.250Z,2.57
2022-12-31T13:50:29.680Z,2.60
2022-12-31T13:53:29.663Z,2.40
2022-12-31T13:56:14.885Z,2.30
2022-12-31T13:58:57.830Z,2.30
2022-12-31T14:02:05.961Z,2.60
2022-12-31T14:04:47.607Z,2.60
2022-12-31T14:07:38.938Z,2.87
2022-12-31T14:10:15.385Z,2.30
2022-12-31T14:13:10.199Z,2.40
2022-12-31T14:16:02.477Z,2.30
2022-12-31T14:18:46.381Z,2.47
2022-12-31T14:21:31.056Z,2.30
2022-12-31T14:24:11.450Z,2.77
2022-12-31T14:26:57.910Z,2.57
2022-12-31T14:29:57.122Z,2.90
2022-12-31T14:32:49.808Z,2.77
2022-12-31T14:36:38.768Z,2.60
2022-12-31T14:39:34.208Z,2.67
2022-12-31T14:42:46.176Z,2.63
2022-12-31T14:45:53.719Z,2.60
2022-12-31T14:48:33.214Z,2.83
2022-12-31T14:51:06.891Z,12.70
2022-12-31T14:53:38.918Z,3.47
2022-12-31T14:56:44.765Z,3.30
2022-12-31T14:59:35.649Z,2.70
2022-12-31T15:02:28.688Z,2.50
2022-12-31T15:05:12.809Z,3.17
2022-12-31T15:07:47.666Z,2.73
2022-12-31T15:10:52.172Z,2.47
2022-12-31T15:13:54.201Z,2.47
2022-12-31T15:16:47.565Z,2.50
2022-12-31T15:19:19.462Z,2.33
2022-12-31T15:22:41.861Z,2.37
2022-12-31T15:25:40.336Z,2.40
2022-12-31T15:28:38.038Z,2.33
2022-12-31T15:31:20.535Z,3.80
2022-12-31T15:34:07.976Z,2.80
2022-12-31T15:36:58.033Z,2.90
2022-12-31T15:39:32.972Z,2.93
2022-12-31T15:42:38.743Z,2.47
2022-12-31T15:45:26.201Z,2.85
2022-12-31T15:48:01.992Z,2.50
2022-12-31T15:50:39.748Z,2.87
2022-12-31T15:53:39.863Z,2.60
2022-12-31T15:56:30.589Z,2.33
2022-12-31T15:59:11.367Z,2.80
2022-12-31T16:01:45.497Z,2.53
2022-12-31T16:04:26.130Z,2.77
2022-12-31T16:07:03.823Z,2.83
2022-12-31T16:09:36.347Z,2.93
2022-12-31T16:12:20.866Z,3.00
2022-12-31T16:14:57.043Z,2.67
2022-12-31T16:17:33.554Z,2.30
2022-12-31T16:20:30.665Z,2.60
2022-12-31T16:23:16.082Z,3.30
2022-12-31T16:25:49.725Z,4.00
2022-12-31T16:28:30.198Z,2.87
2022-12-31T16:31:15.401Z,2.70
2022-12-31T16:33:47.874Z,2.83
2022-12-31T16:36:23.783Z,3.00
2022-12-31T16:39:25.663Z,3.00
2022-12-31T16:42:21.402Z,3.40
2022-12-31T16:44:56.076Z,4.60
2022-12-31T16:47:35.917Z,3.33
2022-12-31T16:50:24.664Z,3.40
2022-12-31T16:53:05.790Z,3.07
2022-12-31T16:55:40.072Z,3.23
2022-12-31T16:58:22.076Z,2.80
2022-12-31T17:00:57.732Z,2.90
2022-12-31T17:03:30.448Z,3.60
2022-12-31T17:06:09.654Z,4.50
2022-12-31T17:08:43.115Z,3.83
2022-12-31T17:11:43.371Z,3.13
2022-12-31T17:14:39.640Z,3.20
2022-12-31T17:17:25.726Z,3.40
2022-12-31T17:20:01.834Z,3.57
2022-12-31T17:22:43.555Z,4.73
2022-12-31T17:25:34.079Z,3.77
2022-12-31T17:28:23.796Z,4.73
2022-12-31T17:31:20.731Z,4.60
2022-12-31T17:34:32.342Z,8.60
2022-12-31T17:37:09.471Z,5.93
2022-12-31T17:39:54.501Z,6.40
2022-12-31T17:42:34.801Z,4.50
2022-12-31T17:45:20.645Z,4.07
2022-12-31T17:47:53.975Z,4.20
2022-12-31T17:50:27.835Z,3.73
2022-12-31T17:53:13.425Z,3.60
2022-12-31T17:55:49.823Z,3.30
2022-12-31T17:58:53.859Z,4.03
2022-12-31T18:01:26.964Z,3.40
2022-12-31T18:03:59.307Z,3.43
2022-12-31T18:06:31.257Z,3.17
2022-12-31T18:09:03.450Z,3.60
2022-12-31T18:11:38.177Z,3.50
2022-12-31T18:14:14.818Z,4.93
2022-12-31T18:16:48.264Z,3.73
2022-12-31T18:19:45.963Z,3.87
2022-12-31T18:22:16.829Z,3.67
2022-12-31T18:24:54.241Z,3.67
2022-12-31T18:27:26.351Z,3.70
2022-12-31T18:30:04.892Z,4.17
2022-12-31T18:32:42.149Z,4.87
2022-12-31T18:35:58.068Z,5.10
2022-12-31T18:38:17.358Z,4.50
2022-12-31T18:40:58.561Z,5.13
2022-12-31T18:43:30.501Z,11.57
2022-12-31T18:46:02.542Z,6.10
2022-12-31T18:48:34.482Z,5.13
2022-12-31T18:51:06.458Z,31.70
2022-12-31T18:53:38.457Z,6.13
2022-12-31T18:56:17.363Z,4.83
2022-12-31T18:58:49.400Z,3.93
2022-12-31T19:01:29.063Z,3.97
2022-12-31T19:04:27.032Z,3.10
2022-12-31T19:06:59.776Z,3.57
2022-12-31T19:09:45.238Z,3.80
2022-12-31T19:12:17.934Z,3.43
2022-12-31T19:14:49.924Z,5.40
2022-12-31T19:17:21.872Z,18.47
2022-12-31T19:19:53.849Z,6.67
2022-12-31T19:22:25.834Z,5.73
2022-12-31T19:24:57.824Z,4.80
2022-12-31T19:27:29.770Z,9.97
2022-12-31T19:30:01.732Z,12.97
2022-12-31T19:32:33.664Z,8.60
2022-12-31T19:35:05.886Z,5.53
2022-12-31T19:37:37.935Z,23.23
2022-12-31T19:40:17.577Z,9.03
2022-12-31T19:42:51.824Z,7.90
2022-12-31T19:45:28.119Z,10.70
2022-12-31T19:48:00.188Z,6.67
2022-12-31T19:50:33.004Z,6.00
2022-12-31T19:53:05.442Z,6.83
2022-12-31T19:55:37.670Z,5.00
2022-12-31T19:58:22.459Z,4.40
2022-12-31T20:01:02.407Z,4.00
2022-12-31T20:03:35.587Z,4.60
2022-12-31T20:06:10.546Z,3.93
2022-12-31T20:08:46.610Z,3.80
2022-12-31T20:11:24.600Z,4.93
2022-12-31T20:13:56.557Z,5.13
2022-12-31T20:16:31.902Z,18.77
2022-12-31T20:19:04.092Z,7.33
2022-12-31T20:21:36.754Z,6.07
2022-12-31T20:24:09.011Z,4.67
2022-12-31T20:26:41.021Z,4.50
2022-12-31T20:29:12.975Z,4.67
2022-12-31T20:31:45.013Z,3.90
2022-12-31T20:34:17.068Z,3.70
2022-12-31T20:36:49.036Z,5.00
2022-12-31T20:39:21.096Z,4.47
2022-12-31T20:41:53.079Z,3.40
2022-12-31T20:44:25.098Z,3.33
2022-12-31T20:46:57.119Z,3.57
2022-12-31T20:50:00.922Z,3.80
2022-12-31T20:52:21.038Z,3.67
2022-12-31T20:54:52.982Z,3.10
2022-12-31T20:57:28.769Z,4.10
2022-12-31T21:00:06.523Z,3.60
2022-12-31T21:02:42.549Z,3.60
2022-12-31T21:05:15.138Z,3.60
2022-12-31T21:07:47.238Z,3.20
2022-12-31T21:10:19.450Z,4.97
2022-12-31T21:12:54.067Z,4.87
2022-12-31T21:15:26.181Z,4.07
2022-12-31T21:18:00.134Z,4.00
2022-12-31T21:20:32.185Z,3.87
2022-12-31T21:23:04.187Z,3.87
2022-12-31T21:25:36.130Z,3.33
2022-12-31T21:28:08.088Z,3.67
2022-12-31T21:30:41.402Z,3.57
2022-12-31T21:33:13.502Z,3.70
2022-12-31T21:35:53.826Z,3.40
2022-12-31T21:38:27.071Z,3.57
2022-12-31T21:41:07.838Z,3.80
2022-12-31T21:43:39.748Z,4.13
2022-12-31T21:46:11.702Z,3.90
2022-12-31T21:48:43.665Z,3.47
2022-12-31T21:51:16.864Z,4.13
2022-12-31T21:53:48.831Z,3.53
2022-12-31T21:56:21.728Z,3.30
2022-12-31T21:59:15.873Z,3.20
2022-12-31T22:02:06.264Z,3.40
2022-12-31T22:07:30.794Z,4.63
2022-12-31T22:10:03.476Z,3.80
2022-12-31T22:12:35.529Z,5.70
2022-12-31T22:15:14.389Z,4.38
2022-12-31T22:17:47.318Z,5.10
2022-12-31T22:20:28.164Z,3.90
2022-12-31T22:23:00.394Z,4.10
2022-12-31T22:25:37.793Z,3.70
2022-12-31T22:28:37.701Z,3.87
2022-12-31T22:31:01.754Z,4.27
2022-12-31T22:33:33.777Z,4.30
2022-12-31T22:36:11.455Z,8.27
2022-12-31T22:38:44.051Z,4.00
2022-12-31T22:41:19.743Z,3.57
2022-12-31T22:44:02.603Z,3.40
2022-12-31T22:46:36.243Z,3.37
2022-12-31T22:49:10.798Z,3.10
2022-12-31T22:51:56.330Z,9.70
2022-12-31T22:54:30.802Z,5.00
2022-12-31T22:57:02.840Z,4.30
2022-12-31T22:59:34.771Z,4.17
2022-12-31T23:02:06.752Z,5.50
2022-12-31T23:04:39.920Z,9.20
2022-12-31T23:07:11.881Z,23.80
2022-12-31T23:10:02.852Z,30.07
2022-12-31T23:12:34.768Z,60.67
2022-12-31T23:15:27.389Z,32.73
2022-12-31T23:18:17.966Z,21.93
2022-12-31T23:21:08.484Z,58.93
2022-12-31T23:23:40.457Z,36.50
2022-12-31T23:26:12.470Z,19.03
2022-12-31T23:28:44.388Z,16.43
2022-12-31T23:31:16.435Z,18.23
2022-12-31T23:33:48.412Z,16.13
2022-12-31T23:36:20.615Z,11.93
2022-12-31T23:38:55.579Z,14.53
2022-12-31T23:41:27.601Z,12.77
2022-12-31T23:43:59.571Z,10.50
2022-12-31T23:46:31.689Z,8.30
2022-12-31T23:49:03.695Z,6.73
2022-12-31T23:51:36.671Z,7.27
2022-12-31T23:54:08.966Z,5.60
2022-12-31T23:56:40.916Z,5.33
2022-12-31T23:59:13.349Z,5.60
